createdAt,value
2023-03-19T18:52:59.986Z,15.63
2023-03-19T18:55:31.340Z,14.70
2023-03-19T18:58:02.022Z,8.37
2023-03-19T19:00:32.563Z,12.53
2023-03-19T19:03:02.234Z,10.37
2023-03-19T19:05:32.253Z,13.97
2023-03-19T19:08:03.321Z,11.10
2023-03-19T19:10:34.952Z,12.37
2023-03-19T19:13:03.821Z,11.67
2023-03-19T19:15:34.579Z,7.27
2023-03-19T19:18:06.996Z,14.13
2023-03-19T19:20:35.229Z,19.97
2023-03-19T19:23:04.964Z,13.90
2023-03-19T19:25:33.229Z,33.60
2023-03-19T19:28:03.278Z,16.70
2023-03-19T19:30:32.356Z,15.40
2023-03-19T19:33:00.829Z,10.57
2023-03-19T19:35:29.502Z,15.30
2023-03-19T19:37:57.598Z,11.00
2023-03-19T19:40:30.914Z,11.80
2023-03-19T19:43:00.248Z,12.47
2023-03-19T19:45:33.085Z,10.73
2023-03-19T19:48:01.485Z,12.17
2023-03-19T19:50:29.776Z,12.73
2023-03-19T19:52:58.699Z,14.03
2023-03-19T19:55:28.484Z,11.40
2023-03-19T19:57:58.252Z,11.50
2023-03-19T20:00:28.575Z,12.93
2023-03-19T20:02:57.842Z,13.77
2023-03-19T20:05:28.111Z,13.80
2023-03-19T20:07:58.063Z,10.93
2023-03-19T20:10:30.173Z,12.60
2023-03-19T20:13:00.896Z,14.17
2023-03-19T20:15:32.933Z,12.27
2023-03-19T20:18:02.201Z,12.77
2023-03-19T20:20:32.400Z,10.53
2023-03-19T20:23:02.050Z,14.00
2023-03-19T20:25:33.203Z,10.27
2023-03-19T20:28:02.719Z,11.37
2023-03-19T20:30:33.265Z,11.20
2023-03-19T20:33:02.061Z,14.53
2023-03-19T20:35:31.953Z,14.33
2023-03-19T20:38:01.543Z,12.40
2023-03-19T20:40:33.803Z,18.17
2023-03-19T20:43:02.639Z,16.13
2023-03-19T20:45:36.323Z,15.00
2023-03-19T20:48:05.777Z,13.30
2023-03-19T20:50:34.625Z,15.50
2023-03-19T20:53:03.669Z,28.20
2023-03-19T20:55:36.162Z,17.00
2023-03-19T20:58:12.187Z,22.13
2023-03-19T21:00:41.071Z,21.43
2023-03-19T21:03:19.660Z,23.03
2023-03-19T21:05:48.071Z,20.47
2023-03-19T21:08:19.586Z,25.10
2023-03-19T21:10:49.845Z,25.97
2023-03-19T21:13:19.380Z,27.30
2023-03-19T21:15:49.611Z,27.73
2023-03-19T21:18:17.912Z,24.00
2023-03-19T21:20:48.134Z,28.73
2023-03-19T21:23:20.810Z,31.53
2023-03-19T21:25:50.557Z,34.27
2023-03-19T21:28:25.385Z,30.37
2023-03-19T21:30:53.924Z,31.90
2023-03-19T21:33:27.227Z,32.70
2023-03-19T21:35:56.214Z,35.10
2023-03-19T21:38:24.932Z,36.67
2023-03-19T21:40:57.129Z,35.90
2023-03-19T21:43:32.679Z,32.07
2023-03-19T21:46:13.923Z,31.57
2023-03-19T21:48:43.453Z,36.10
2023-03-19T21:51:16.188Z,39.87
2023-03-19T21:53:45.699Z,34.13
2023-03-19T21:56:21.916Z,35.33
2023-03-19T21:58:51.232Z,35.60
2023-03-19T22:01:21.047Z,36.87
2023-03-19T22:03:49.288Z,30.63
2023-03-19T22:06:17.896Z,32.40
2023-03-19T22:08:48.005Z,32.13
2023-03-19T22:11:21.716Z,33.97
2023-03-19T22:13:50.110Z,36.60
2023-03-19T22:16:20.805Z,35.27
2023-03-19T22:18:49.651Z,34.40
2023-03-19T22:21:18.843Z,33.60
2023-03-19T22:23:47.883Z,27.17
2023-03-19T22:26:30.247Z,29.47
2023-03-19T22:29:00.161Z,28.53
2023-03-19T22:31:28.729Z,31.30
2023-03-19T22:33:57.211Z,34.10
2023-03-19T22:36:25.353Z,34.50
2023-03-19T22:38:53.289Z,28.60
2023-03-19T22:41:26.927Z,26.80
2023-03-19T22:43:57.230Z,28.90
2023-03-19T22:46:26.191Z,27.20
2023-03-19T22:48:54.234Z,28.83
2023-03-19T22:51:24.797Z,26.30
2023-03-19T22:53:53.254Z,29.60
2023-03-19T22:56:22.092Z,29.70
2023-03-19T22:58:50.848Z,25.97
2023-03-19T23:01:37.405Z,26.70
2023-03-19T23:04:23.938Z,31.07
2023-03-19T23:06:52.913Z,30.27
2023-03-19T23:09:22.780Z,27.10
2023-03-19T23:11:50.939Z,27.00
2023-03-19T23:14:29.055Z,30.80
2023-03-19T23:17:03.022Z,26.40
2023-03-19T23:19:32.640Z,23.77
2023-03-19T23:22:02.436Z,24.33
2023-03-19T23:24:31.422Z,24.10
2023-03-19T23:27:00.890Z,24.20
2023-03-19T23:29:32.988Z,26.00
2023-03-19T23:32:03.319Z,23.03
2023-03-19T23:34:33.583Z,24.10
2023-03-19T23:37:03.557Z,23.23
2023-03-19T23:39:31.907Z,23.20
2023-03-19T23:42:00.259Z,27.30
2023-03-19T23:44:29.480Z,25.27
2023-03-19T23:47:00.516Z,26.83
2023-03-19T23:49:33.129Z,23.37
2023-03-19T23:52:04.278Z,25.43
2023-03-19T23:54:33.961Z,22.10
2023-03-19T23:57:06.580Z,28.40
2023-03-19T23:59:36.865Z,27.80
